Change Date:Time:

Metar of : 4/25/2019 0000UTC
Metar
OPFA 36004KT 4000 FU FEW100 21/17 Q1010 NOSIG RH78%
OPMT 00000KT 5000 FU FEW120 23/19 Q1009 TEMPO 4000 RH78%
OPGP 00000KT 6000 BKN040 OVC100 16/14 90%
OPMF 00000KT 6000 SCT033 17/15 90%
OPSW 31008KT 4000 FU NSC 23/17 Q1007 70%
OPLA 02005KT 4000 FU FEW100 22/17 Q1009 A29.79 NOSIG R/H 74%
OPKW 00000KT 4000 FU NSC 22/16 Q1010 73%
OPKS 00000KT 4000 FU SCT100 23/17 71%
OPHD 00000KT 5000 FU NSC 19/17 90%
OPNL 36002KT 2000 FU FEW040 SCT100 22/15 Q1008 66%
OPRT 00000KT 6000 SCT040 SCT100 10/09 Q1026 94%
OPST 31004KT 4000 FU SCT100 20/17 Q1010 NOSIG RH81%
OPRT 00000KT 6000 SCT040 SCT100 10/09 Q1026 94%
OPCK 00000KT 9999 NSC 18/17 95%
OPIS 23007KT 6000 NSC 17/16 Q1012 RH 95%
OPAS 00000KT 3000 RA SCT015ST SCT035 OVC100 08/07 94%
OPBJ 00000KT 6000 SCT040 OVC110 15/10 70%
OPBKR 00000KT 6000 NSC 23/19 83%
OPBR 36004KT 6000 SCT040 SCT100 21/14 65%
OPBW 250000 36004KT 2000 FU SCT100 23/17 71%
OPBW( CITY) 36004KT 2000 FU SCT100 23/17 71%
OPCL 23004KT 6000 SCT 040 BKN 120 15/12 79%
OPDG 05008KT 6000 NSC 24/19 Q1006 72%
OPDIK 00000KT 4000 FU NSC 23/19 Q1011 78%
OPGT 00000KT 4000 FEW040 BKN100 15/12 Q1018 79%
OPGW 31002KT 9999 SCT110 18/15 80%
OPJBD 00000KT 3000 BR NSC 20/19 95%
OPJM 00000KT 6000 FEW040 SCT120 20/17 86%
OPKAD 00000KT 6000 NSC 23/18 74%
OPKL 27006KT 6000 NSC 20/13 65%
OPKP 05010KT 4000 FU BKN120 25/19 68%
OPLA( CITY) 36004KT 4000 FU NSC 24/16 Q1007 60%
OPMB 00000KT 4000 FU SCT120 20/18 Q1009 86%
OPME 36004KT 6000 SCT040 SCT100 10/04 66%
OPNPT 00000KT 6000 NSC 19/17 90%
OPOK 31002KT 4000 FU FEW100 21/18 Q1009 82%
OPRK 04502KT 5000 NSC 26/16 Q1008 55%
OPSD 00000KT 6000 FEW018ST SCT035 BKN100 12/04 Q1022 68%
OPSG 00000KT 7000 NSC 22/19 86%
OPSKT 00000KT 6000 FEW040 21/16 73%
OPTS 00000KT 4000 FU NSC 21/18 82%
OPUG 00000KT 5000 FU SCT100 21/18 82%
OPDIR 27002KT 6000 RA FEW 020(ST) SCT 030 SCT 100 12/11 RH 94 %
OPSS 00000KT 3000 SCT040 BKN100 16/14 90%
OPBK 000OOKT 8000 SCT100 17/09 RH 59%
OPPG 250000Z 36008KT 6000 SKC 19/08 Q1016 RH48%
OPSK 250000 13004KT 3000 HZ FEW040 SCT100 26/17 Q.1006 RH59% NOSIG
OPGD 250000Z 00000KT 6000 NSC 21/16 Q1009 RH73%
OPLRK 250000Z 13504KT 6000 SCT100 26/19 Q1006 RH69%
OPMPK 250000Z 22504KT V7000 SKC 23/19 Q1006 RH 79%
OPKD 250000Z 21006KT 6000 NSC 24/23 Q1007 RH 96% NO SIG
OPSKD 250000Z 18002KT 6000 NSC 27/20 RH 66%
OPHQ 00000KT 6000 NSC 18/16 Q1009 RH 90%
OPBKN 250000Z 05002KT 0500 NSC 18/09 RH55%
OPRRI 250000Z 13502 KTS 6000 NSC HZ 28/17 P1P1 9989
OPNH 250000Z 13506KT 4000 HZ FEW035 FEW100 26/20 Q1005 RH69%
OPMJ 250000Z 00000KT 6000 NSC 25/19 Q1006 RH68% NO SIG
OPTJM 250000Z 23006KT 6000 SKC 22/20 Q1011 RH 87%
OPTU 250000Z 00000KT 6000 SKC 26/24 Q1007 RH88%
OPDB 250000Z 05002KT 6000 NSC 20/08 Q1016 RH 46%
OPDU 250000Z 18002KT 5000 Hz Nsc 21/15 RH 69%
OPBL 250000Z 00000KT 6000 NSC 26/23 RH84%
OPMIT 250000 22506KT 6000 SCT 025 24/21 Q1006 RH83%
OPBDN 250000Z 23004KT 6000 NSC 25/20 Q1008 RH 76%
OPKC 250000Z 23004KT 7000 BKN020 27/24 Q1007 RH84%
OPPDN 250000Z 00000 KT5000 24/18 Q1004 RH 68%
OPNK 250000Z 31510KT 2000 DU 20/M01 Q1005 R.H. 25%
OPJD 250000Z 09004KT 5000 HZ SCT100 29/18 Q1007 RH52%
OPZB 250000Z 31005KT 6000 SKC 15/12 Q1019 79%
OPSM 250000Z 00000KT 2000HZ NSC 14/09 RH 70%
OPGPS 00000 4000 FEW 030ST SCT 040 BKN 100 09/07 88%
OPJG 00000KT 4000 FU NSC 20/18 Q1009 86%
OPMA 00000KT 5000 FU FEW040 SCT100 19/17 Q1012 86%
IS1: TAF OPIS 2503/2512 27010KT 5000 HZ FEW040 SCT100 PROB30 TEMPO 2509/2512 31015G35KT 4000 TSRA FEW030CB SCT040 BKN100
OPKRL 00000KT 4000 FU SCT040 SCT100 22/19 82%
OPQT 23004KT 3000 DU FEW050 15/03 Q1019 RH45%
QT1.TAF OPQT 250000Z 2503/2512 31015G25KT 4000 HZ/DU SCT050 FEW100
OPKE 250000Z 22506KT 5000 NSC 24/21 Q1007 RH83%
CodeW.DirSpeedVisibilityCloud ConditionTempPressureHumidityStation
OPAS00000KT3000m94%Astore
OPAS00000KT3000m94%Astore
OPBDN23004KT6000mClear25oC76%Badin
OPBDN23004KT6000mClear25oC76%Badin
OPBR36004KT6000mPartly Cloudy21oC65%Bahawalnagar
OPBR36004KT6000mPartly Cloudy21oC65%Bahawalnagar
OPBW36004KT2000mPartly Cloudy23oC71%Bahawalpur
OPBW36004KT2000mPartly Cloudy23oC71%Bahawalpur
OPBKR00000KT6000mClear23oC83%Bhakkar
OPBKR00000KT6000mClear23oC83%Bhakkar
OPBJ00000KT6000mPartly Cloudy15oC70%Bunji
OPBJ00000KT6000mPartly Cloudy15oC70%Bunji
OPKE22506KT5000mClear24oC1007hp83%Chhor
OPKE22506KT5000mClear24oC1007hp83%Chhor
OPCL23004KT6000mPartly Cloudy15oC79%Chilas
OPCL23004KT6000mPartly Cloudy15oC79%Chilas
OPDG05008KT6000mClear24oC1006hp72%D.G.Khan
OPDG05008KT6000mClear24oC1006hp72%D.G.Khan
OPDU18002KT5000mDust Haze21oC69%Dadu
OPDU18002KT5000mDust Haze21oC69%Dadu
OPDIK00000KT4000mHaze23oC1011hp78%DI Khan
OPDIK00000KT4000mHaze23oC1011hp78%DI Khan
OPDIR27002KT6000mDir
OPDIR27002KT6000mDir
OPFA36004KT4000mPartly Cloudy21oC1010hp78%Faisalabad
OPFA36004KT4000mPartly Cloudy21oC1010hp78%Faisalabad
OPGP00000KT6000mCloudy16oC90%Garhidopatta
OPGP00000KT6000mCloudy16oC90%Garhidopatta
OPGD00000KT6000mClear21oC73%Gawadar
OPGD00000KT6000mClear21oC73%Gawadar
OPGT00000KT4000mPartly Cloudy15oC79%Gilgit
OPGT00000KT4000mPartly Cloudy15oC79%Gilgit
OPGW31002KT9999mPartly Cloudy18oC80%Gujranwala
OPGW31002KT9999mPartly Cloudy18oC80%Gujranwala
OPUG00000KT5000mPartly Cloudy21oC82%Gujrat
OPUG00000KT5000mPartly Cloudy21oC82%Gujrat
OPGPS4000m88%Gupis
OPGPS4000m88%Gupis
OPKD21006KT6000mClear24oCHyderabad
OPKD21006KT6000mClear24oCHyderabad
OPHQ00000KT6000mClear18oC1009hp90%Islamabad HQ
OPHQ00000KT6000mClear18oC1009hp90%Islamabad HQ
OPJG00000KT4000mHaze20oC1009hp86%Jhang
OPJG00000KT4000mHaze20oC1009hp86%Jhang
OPJM00000KT6000mPartly Cloudy20oC86%Jhelum
OPJM00000KT6000mPartly Cloudy20oC86%Jhelum
OPJBD00000KT3000mMist20oC95%Joharabad
OPJBD00000KT3000mMist20oC95%Joharabad
OPKC23004KT7000mCloudy27oC84%Karachi A/P
OPKC23004KT7000mCloudy27oC84%Karachi A/P
OPKS00000KT4000mPartly Cloudy23oC71%Kasur
OPKS00000KT4000mPartly Cloudy23oC71%Kasur
OPKP05010KT4000mCloudy25oC68%Khanpur
OPKP05010KT4000mCloudy25oC68%Khanpur
OPKAD00000KT6000mClear23oC74%Kot Addu
OPKAD00000KT6000mClear23oC74%Kot Addu
OPLA02005KT4000mPartly Cloudy22oC1009hp74%Lahore
OPLA02005KT4000mPartly Cloudy22oC1009hp74%Lahore
OPLRK13504KT6000mPartly Cloudy26oC69%Larkana
OPLRK13504KT6000mPartly Cloudy26oC69%Larkana
OPBL00000KT6000mClear26oC84%Lasbela
OPBL00000KT6000mClear26oC84%Lasbela
OPKRL00000KT4000mPartly Cloudy22oC82%Layyah
OPKRL00000KT4000mPartly Cloudy22oC82%Layyah
OPMB00000KT4000mPartly Cloudy20oC1009hp86%Mandibahaudin
OPMB00000KT4000mPartly Cloudy20oC1009hp86%Mandibahaudin
OPMA00000KT5000mPartly Cloudy19oC86%Mangla
OPMA00000KT5000mPartly Cloudy19oC86%Mangla
OPMIT22506KT6000mPartly Cloudy24oC83%Mithi
OPMIT22506KT6000mPartly Cloudy24oC83%Mithi
OPMJ00000KT6000mClear25oCMoin-Jo-Dar
OPMJ00000KT6000mClear25oCMoin-Jo-Dar
OPMT00000KT5000mPartly Cloudy23oC1009hp78%Multan
OPMT00000KT5000mPartly Cloudy23oC1009hp78%Multan
OPME36004KT6000mPartly Cloudy10oC66%Murree
OPME36004KT6000mPartly Cloudy10oC66%Murree
OPMF00000KT6000mPartly Cloudy17oC90%Muzaffarabad
OPMF00000KT6000mPartly Cloudy17oC90%Muzaffarabad
OPNK31510KT2000mDust Haze20oC25%Nokundi
OPNK31510KT2000mDust Haze20oC25%Nokundi
OPNPT00000KT6000mClear19oC90%Noorpur Thal
OPNPT00000KT6000mClear19oC90%Noorpur Thal
OPOK31002KT4000mPartly Cloudy21oC1009hp82%Okara
OPOK31002KT4000mPartly Cloudy21oC1009hp82%Okara
OPPDN24oC1004hp68%Padedan
OPPDN24oC1004hp68%Padedan
OPPG36008KT6000mClear19oC48%Panjgur
OPPG36008KT6000mClear19oC48%Panjgur
OPQT23004KT3000mPartly Cloudy15oC1019hp45%Quetta
OPQT23004KT3000mPartly Cloudy15oC1019hp45%Quetta
OPSM00000KTHaze14oC70%Quetta Sheikhmanda
OPSM00000KTHaze14oC70%Quetta Sheikhmanda
OPRK04502KT5000mClear26oC1008hp55%R.Y.Khan
OPRK04502KT5000mClear26oC1008hp55%R.Y.Khan
OPRT00000KT6000mPartly Cloudy10oC94%Rawalakot
OPRT00000KTPartly Cloudy10oC94%Rawalakot
OPRT00000KT6000mPartly Cloudy10oC94%Rawalakot
OPRT00000KTPartly Cloudy10oC94%Rawalakot
OPSW31008KT4000mHaze23oC1007hp70%Sahiwal
OPSW31008KT4000mHaze23oC1007hp70%Sahiwal
OPSS00000KT3000mPartly Cloudy16oC90%Saidu-Sharif
OPSS00000KT3000mPartly Cloudy16oC90%Saidu-Sharif
OPSG00000KT7000mClear22oC86%Sargodha Agromet
OPSG00000KT7000mClear22oC86%Sargodha Agromet
OPNH13506KT4000m69%Sh Benazirabad
OPNH13506KT4000m69%Sh Benazirabad
OPST31004KT4000mPartly Cloudy20oC1010hp81%Sialkot A/P
OPST31004KT4000mPartly Cloudy20oC1010hp81%Sialkot A/P
OPSD00000KT6000m68%Skardu
OPSD00000KT6000m68%Skardu
OPSK13004KT3000mSukkur
OPSK13004KT3000mSukkur
OPTS00000KT4000mHaze21oC82%Toba Tek Singh
OPTS00000KT4000mHaze21oC82%Toba Tek Singh
OPTU00000KT6000mClear26oC88%Turbat
OPTU00000KT6000mClear26oC88%Turbat
OPZB31005KT6000mClear15oC79%Zhob
OPZB31005KT6000mClear15oC79%Zhob